Time;durP1;ratioP1;P1;durP2;ratioP2;P2;SDS_P1;SDS_P2;PMS_P1;PMS_P2;Temp;Humidity;BMP_temperature;BMP_pressure;BME280_temperature;BME280_humidity;BME280_pressure;Samples;Min_cycle;Max_cycle;Signal;HPM_P1;HPM_P2
2024/01/29 00:00:55;;;;;;;5.65;2.20;;;5.80;99.90;;;;;;4952941;28;20046;-73
2024/01/29 00:03:20;;;;;;;4.20;2.15;;;5.80;99.90;;;;;;4968890;28;20027;-72
2024/01/29 00:05:46;;;;;;;5.03;1.70;;;5.80;99.90;;;;;;4967872;28;20045;-72
2024/01/29 00:08:12;;;;;;;4.35;2.00;;;5.80;99.90;;;;;;4965476;28;20482;-73
2024/01/29 00:10:37;;;;;;;4.13;1.83;;;5.90;99.90;;;;;;4952250;28;20038;-72
2024/01/29 00:13:03;;;;;;;4.25;1.70;;;5.80;99.90;;;;;;4952121;28;20031;-72
2024/01/29 00:15:28;;;;;;;4.70;2.00;;;5.90;99.90;;;;;;4960585;28;20035;-72
2024/01/29 00:17:54;;;;;;;4.97;2.45;;;5.80;99.90;;;;;;4955125;28;20406;-73
2024/01/29 00:20:19;;;;;;;4.68;2.17;;;5.90;99.90;;;;;;4966445;28;20121;-72
2024/01/29 00:22:45;;;;;;;4.72;2.17;;;5.90;99.90;;;;;;4958260;28;20035;-72
2024/01/29 00:25:11;;;;;;;4.82;1.77;;;5.90;99.90;;;;;;4969143;28;20134;-74
2024/01/29 00:27:36;;;;;;;7.18;2.30;;;5.90;99.90;;;;;;4950279;28;20039;-72
2024/01/29 00:30:02;;;;;;;4.50;2.40;;;6.00;99.90;;;;;;4953247;28;20526;-73
2024/01/29 00:32:28;;;;;;;5.50;1.70;;;6.00;99.90;;;;;;4963309;28;20054;-74
2024/01/29 00:34:54;;;;;;;6.65;2.30;;;6.00;99.90;;;;;;4954447;28;20399;-72
2024/01/29 00:37:22;;;;;;;4.82;1.88;;;6.00;99.90;;;;;;4950796;28;20035;-73
2024/01/29 00:39:51;;;;;;;4.57;1.88;;;6.00;99.90;;;;;;4955757;28;20042;-72
2024/01/29 00:42:18;;;;;;;7.00;2.42;;;6.00;99.90;;;;;;4953680;28;20403;-73
2024/01/29 00:44:44;;;;;;;3.05;1.48;;;6.00;99.90;;;;;;4954773;28;20031;-72
2024/01/29 00:47:10;;;;;;;5.22;1.85;;;5.90;99.90;;;;;;4951924;28;20594;-73
2024/01/29 00:49:36;;;;;;;4.63;1.77;;;5.90;99.90;;;;;;4970963;28;20182;-73
2024/01/29 00:52:04;;;;;;;4.93;2.55;;;5.90;99.90;;;;;;4972262;28;20034;-72
2024/01/29 00:54:30;;;;;;;5.22;2.25;;;5.90;99.90;;;;;;4973794;28;20038;-76
2024/01/29 00:56:56;;;;;;;3.83;2.05;;;5.80;99.90;;;;;;4956582;28;20031;-72
2024/01/29 00:59:21;;;;;;;9.98;1.80;;;5.80;99.90;;;;;;4953729;28;20089;-72
2024/01/29 01:01:47;;;;;;;6.18;2.15;;;5.80;99.90;;;;;;4959878;28;20046;-72
2024/01/29 01:04:12;;;;;;;4.65;2.05;;;5.80;99.90;;;;;;4971522;28;20034;-71
2024/01/29 01:09:14;;;;;;;8.23;2.22;;;5.80;99.90;;;;;;4970197;23;20843;-73
2024/01/29 01:11:41;;;;;;;8.40;2.95;;;5.80;99.90;;;;;;4988465;28;20030;-71
2024/01/29 01:14:06;;;;;;;5.03;2.63;;;5.80;99.90;;;;;;4998521;28;20040;-73
2024/01/29 01:16:32;;;;;;;8.00;2.67;;;5.70;99.90;;;;;;5009007;28;20034;-72
2024/01/29 01:18:57;;;;;;;6.55;2.10;;;5.70;99.90;;;;;;5010254;28;20069;-72
2024/01/29 01:21:23;;;;;;;4.47;2.08;;;5.70;99.90;;;;;;5028423;28;20029;-75
2024/01/29 01:23:48;;;;;;;3.38;2.13;;;5.70;99.90;;;;;;5000400;28;20030;-74
2024/01/29 01:26:14;;;;;;;7.78;2.40;;;5.70;99.90;;;;;;4994033;28;20104;-73
2024/01/29 01:28:40;;;;;;;8.43;2.85;;;5.70;99.90;;;;;;5033123;28;20033;-74
2024/01/29 01:31:05;;;;;;;6.05;1.80;;;5.60;99.90;;;;;;5001523;28;20095;-74
2024/01/29 01:33:31;;;;;;;5.70;2.03;;;5.60;99.90;;;;;;5000950;28;20057;-75
2024/01/29 01:35:56;;;;;;;5.85;2.00;;;5.50;99.90;;;;;;5004941;28;20057;-76
2024/01/29 01:38:22;;;;;;;3.88;1.85;;;5.50;99.90;;;;;;4997409;28;20037;-73
2024/01/29 01:40:47;;;;;;;4.80;2.13;;;5.40;99.90;;;;;;5001056;28;20050;-73
2024/01/29 01:43:21;;;;;;;4.78;2.00;;;5.40;99.90;;;;;;4994205;28;20030;-74
2024/01/29 01:46:16;;;;;;;6.97;2.25;;;5.40;99.90;;;;;;5015379;28;20032;-73
2024/01/29 01:48:41;;;;;;;9.10;2.53;;;5.40;99.90;;;;;;5004451;28;20084;-72
2024/01/29 01:51:07;;;;;;;5.10;1.98;;;5.30;99.90;;;;;;4999110;28;20026;-75
2024/01/29 01:53:36;;;;;;;5.55;2.20;;;5.30;99.90;;;;;;4992053;28;20490;-73
2024/01/29 01:56:02;;;;;;;6.10;2.33;;;5.20;99.90;;;;;;4992935;28;20092;-74
2024/01/29 01:58:29;;;;;;;6.68;2.08;;;5.20;99.90;;;;;;5014104;28;20042;-74
2024/01/29 02:00:56;;;;;;;5.88;2.70;;;5.20;99.90;;;;;;5004547;28;20503;-74
2024/01/29 02:03:21;;;;;;;5.00;2.55;;;5.20;99.90;;;;;;4993735;28;20509;-73
2024/01/29 02:05:47;;;;;;;4.50;2.20;;;5.10;99.90;;;;;;4995397;28;20038;-73
2024/01/29 02:08:15;;;;;;;4.88;1.98;;;5.10;99.90;;;;;;5009856;28;20026;-74
2024/01/29 02:10:40;;;;;;;9.27;2.20;;;5.20;99.90;;;;;;5010253;28;20058;-72
2024/01/29 02:13:14;;;;;;;4.88;1.95;;;5.10;99.90;;;;;;5011498;28;20103;-75
2024/01/29 02:15:40;;;;;;;4.55;2.05;;;5.10;99.90;;;;;;5013889;28;20395;-74
2024/01/29 02:18:06;;;;;;;7.28;2.08;;;5.10;99.90;;;;;;5008132;28;20040;-72
2024/01/29 02:20:31;;;;;;;6.32;2.40;;;5.10;99.90;;;;;;5008650;28;20400;-74
2024/01/29 02:22:57;;;;;;;4.63;2.55;;;5.10;99.90;;;;;;5005267;28;20029;-77
2024/01/29 02:25:23;;;;;;;5.80;2.33;;;5.10;99.90;;;;;;4993035;28;20063;-75
2024/01/29 02:27:48;;;;;;;5.00;2.75;;;5.10;99.90;;;;;;4991730;28;20726;-72
2024/01/29 02:30:14;;;;;;;7.03;2.20;;;5.10;99.90;;;;;;4992209;28;20125;-74
2024/01/29 02:32:40;;;;;;;5.55;2.05;;;5.10;99.90;;;;;;4995221;28;20042;-73
2024/01/29 02:35:06;;;;;;;9.25;2.40;;;5.10;99.90;;;;;;4995161;28;20037;-73
2024/01/29 02:37:32;;;;;;;7.82;2.53;;;5.10;99.90;;;;;;5010733;28;20096;-74
2024/01/29 02:39:58;;;;;;;4.43;1.90;;;5.10;99.90;;;;;;5020585;28;20448;-75
2024/01/29 02:42:23;;;;;;;4.88;2.67;;;5.20;99.90;;;;;;5000709;28;20033;-75
2024/01/29 02:44:49;;;;;;;8.77;2.42;;;5.10;99.90;;;;;;5009133;28;20512;-73
2024/01/29 02:47:17;;;;;;;6.32;2.63;;;5.10;99.90;;;;;;4991552;28;20042;-74
2024/01/29 02:49:43;;;;;;;4.30;2.20;;;5.10;99.90;;;;;;5016007;28;20057;-76
2024/01/29 02:52:10;;;;;;;11.00;2.53;;;5.10;99.90;;;;;;4998363;28;20034;-74
2024/01/29 02:54:35;;;;;;;13.05;2.97;;;5.10;99.90;;;;;;5012133;28;20042;-74
2024/01/29 02:57:01;;;;;;;5.47;2.13;;;5.10;99.90;;;;;;5016626;28;20108;-75
2024/01/29 02:59:26;;;;;;;5.40;2.10;;;5.10;99.90;;;;;;5011909;28;20112;-74
2024/01/29 03:01:53;;;;;;;6.15;2.63;;;5.10;99.90;;;;;;5001904;28;20112;-74
2024/01/29 03:04:19;;;;;;;7.03;2.88;;;5.20;99.90;;;;;;5009510;28;20083;-74
2024/01/29 03:06:45;;;;;;;5.75;2.28;;;5.20;99.90;;;;;;5019014;28;20037;-74
2024/01/29 03:09:10;;;;;;;3.70;1.90;;;5.10;99.90;;;;;;4998329;28;20049;-73
2024/01/29 03:11:36;;;;;;;6.82;3.15;;;5.10;99.90;;;;;;5016848;28;20049;-73
2024/01/29 03:14:01;;;;;;;4.60;2.13;;;5.00;99.90;;;;;;4991187;28;20660;-74
2024/01/29 03:16:27;;;;;;;6.68;2.88;;;5.00;99.90;;;;;;5010866;28;20044;-71
2024/01/29 03:18:52;;;;;;;6.30;2.63;;;5.00;99.90;;;;;;4990419;28;20038;-75
2024/01/29 03:21:18;;;;;;;3.95;1.98;;;5.00;99.90;;;;;;4999885;28;20381;-74
2024/01/29 03:23:44;;;;;;;5.28;2.15;;;5.00;99.90;;;;;;5021258;28;20125;-74
2024/01/29 03:26:09;;;;;;;5.22;2.22;;;5.00;99.90;;;;;;5010298;28;20034;-74
2024/01/29 03:28:35;;;;;;;7.05;2.55;;;5.00;99.90;;;;;;5009578;28;20037;-75
2024/01/29 03:31:00;;;;;;;5.90;2.65;;;4.90;99.90;;;;;;5018363;28;20124;-75
2024/01/29 03:33:26;;;;;;;7.38;2.80;;;4.80;99.90;;;;;;5008865;28;20037;-72
2024/01/29 03:35:51;;;;;;;4.47;2.00;;;4.80;99.90;;;;;;4994748;28;20026;-74
2024/01/29 03:38:17;;;;;;;5.07;2.50;;;4.80;99.90;;;;;;5008360;28;20057;-74
2024/01/29 03:40:42;;;;;;;4.93;2.20;;;4.80;99.90;;;;;;5005552;28;20061;-74
2024/01/29 03:43:08;;;;;;;4.53;2.05;;;4.70;99.90;;;;;;5022339;28;20033;-74
2024/01/29 03:45:34;;;;;;;5.82;2.25;;;4.70;99.90;;;;;;4990118;28;20128;-75
2024/01/29 03:48:00;;;;;;;7.10;2.42;;;4.70;99.90;;;;;;5007126;28;20034;-74
2024/01/29 03:50:25;;;;;;;3.83;2.10;;;4.60;99.90;;;;;;4992603;28;20090;-73
2024/01/29 03:52:51;;;;;;;5.30;2.20;;;4.60;99.90;;;;;;4995880;28;20436;-74
2024/01/29 03:55:16;;;;;;;8.55;2.45;;;4.60;99.90;;;;;;5000922;28;20385;-74
2024/01/29 03:57:42;;;;;;;4.70;2.00;;;4.60;99.90;;;;;;4995670;28;20203;-73
2024/01/29 04:00:09;;;;;;;6.47;2.58;;;4.60;99.90;;;;;;5004828;28;20137;-73
2024/01/29 04:02:34;;;;;;;6.13;2.50;;;4.60;99.90;;;;;;4994872;28;20033;-74
2024/01/29 04:05:00;;;;;;;6.13;2.45;;;4.60;99.90;;;;;;5009758;28;20421;-75
2024/01/29 04:07:27;;;;;;;5.03;2.55;;;4.70;99.90;;;;;;5016278;28;20067;-74
2024/01/29 04:09:53;;;;;;;6.07;2.50;;;4.70;99.90;;;;;;4968787;28;1031005;-75
2024/01/29 04:12:18;;;;;;;5.72;2.35;;;4.70;99.90;;;;;;5003638;28;20219;-74
2024/01/29 04:14:44;;;;;;;6.60;2.40;;;4.70;99.90;;;;;;5010262;28;20034;-74
2024/01/29 04:17:12;;;;;;;11.85;2.53;;;4.70;99.90;;;;;;4998701;28;20382;-74
2024/01/29 04:19:38;;;;;;;5.55;2.03;;;4.70;99.90;;;;;;4999893;28;20030;-74
2024/01/29 04:22:04;;;;;;;3.97;2.47;;;4.70;99.90;;;;;;5005285;28;20505;-74
2024/01/29 04:24:30;;;;;;;8.25;2.45;;;4.70;99.90;;;;;;5011603;28;20512;-74
2024/01/29 04:26:56;;;;;;;6.65;2.60;;;4.70;99.90;;;;;;5013464;28;20113;-74
2024/01/29 04:29:22;;;;;;;9.80;2.75;;;4.70;99.90;;;;;;5011329;28;20033;-73
2024/01/29 04:31:47;;;;;;;12.50;2.65;;;4.70;99.90;;;;;;4999088;28;20049;-75
2024/01/29 04:34:13;;;;;;;10.15;2.70;;;4.70;99.90;;;;;;4992156;28;20033;-72
2024/01/29 04:36:38;;;;;;;6.53;2.13;;;4.70;99.90;;;;;;5009913;28;20464;-74
2024/01/29 04:39:04;;;;;;;4.80;2.38;;;4.60;99.90;;;;;;5013786;28;20033;-74
2024/01/29 04:41:30;;;;;;;5.18;2.38;;;4.60;99.90;;;;;;5021108;28;20030;-74
2024/01/29 04:43:56;;;;;;;5.55;2.38;;;4.60;99.90;;;;;;5008122;28;20063;-75
2024/01/29 04:46:23;;;;;;;7.45;2.85;;;4.60;99.90;;;;;;4997783;28;20049;-73
2024/01/29 04:48:48;;;;;;;7.45;3.42;;;4.60;99.90;;;;;;4991961;28;20433;-75
2024/01/29 04:51:14;;;;;;;6.13;2.88;;;4.60;99.90;;;;;;4992748;28;20037;-73
2024/01/29 04:53:40;;;;;;;5.25;2.35;;;4.60;99.90;;;;;;4994763;28;20070;-74
2024/01/29 04:56:06;;;;;;;6.10;2.97;;;4.60;99.90;;;;;;4993899;28;20491;-75
2024/01/29 04:58:32;;;;;;;5.88;2.20;;;4.60;99.90;;;;;;4990032;28;20116;-72
2024/01/29 05:00:59;;;;;;;6.85;2.50;;;4.60;99.90;;;;;;4993800;28;20141;-74
2024/01/29 05:03:26;;;;;;;6.95;2.70;;;4.60;99.90;;;;;;4994234;28;20088;-74
2024/01/29 05:05:52;;;;;;;5.63;2.83;;;4.60;99.90;;;;;;4996725;28;20755;-73
2024/01/29 05:08:18;;;;;;;6.95;2.20;;;4.60;99.90;;;;;;5026885;28;20120;-73
2024/01/29 05:10:45;;;;;;;5.95;2.50;;;4.60;99.90;;;;;;5002052;28;20129;-74
2024/01/29 05:13:10;;;;;;;5.85;2.67;;;4.60;99.90;;;;;;4991591;28;20102;-75
2024/01/29 05:15:36;;;;;;;6.72;2.45;;;4.70;99.90;;;;;;4995652;28;20042;-73
2024/01/29 05:18:01;;;;;;;5.45;2.47;;;4.70;99.90;;;;;;4992323;28;20054;-74
2024/01/29 05:20:27;;;;;;;5.95;2.50;;;4.70;99.90;;;;;;4995253;28;20044;-74
2024/01/29 05:22:52;;;;;;;7.30;2.53;;;4.70;99.90;;;;;;4990042;28;20393;-75
2024/01/29 05:25:18;;;;;;;6.05;2.28;;;4.70;99.90;;;;;;4990213;28;20022;-73
2024/01/29 05:27:44;;;;;;;5.80;2.50;;;4.60;99.90;;;;;;5008934;28;20087;-74
2024/01/29 05:30:10;;;;;;;6.80;2.88;;;4.60;99.90;;;;;;4995051;28;20029;-74
2024/01/29 05:32:35;;;;;;;5.93;2.63;;;4.60;99.90;;;;;;5007334;28;20045;-74
2024/01/29 05:35:02;;;;;;;8.20;3.30;;;4.70;99.90;;;;;;4998543;28;20817;-76
2024/01/29 05:37:28;;;;;;;5.68;2.60;;;4.70;99.90;;;;;;4997686;28;20033;-72
2024/01/29 05:39:54;;;;;;;5.03;2.42;;;4.70;99.90;;;;;;4994345;28;20516;-73
2024/01/29 05:42:20;;;;;;;7.50;2.60;;;4.70;99.90;;;;;;4996368;28;20041;-72
2024/01/29 05:44:45;;;;;;;10.68;3.78;;;4.70;99.90;;;;;;5008793;28;20029;-73
2024/01/29 05:47:11;;;;;;;7.15;2.78;;;4.70;99.90;;;;;;5020924;28;20046;-77
2024/01/29 05:49:36;;;;;;;5.03;2.53;;;4.60;99.90;;;;;;5027094;28;20033;-74
2024/01/29 05:52:02;;;;;;;7.25;2.92;;;4.60;99.90;;;;;;5012514;28;20048;-74
2024/01/29 05:54:28;;;;;;;8.30;2.75;;;4.60;99.90;;;;;;5015888;28;20037;-74
2024/01/29 05:56:54;;;;;;;7.75;2.75;;;4.70;99.90;;;;;;4992370;28;20030;-73
2024/01/29 05:59:19;;;;;;;6.25;2.80;;;4.70;99.90;;;;;;5004640;28;20045;-74
2024/01/29 06:01:45;;;;;;;5.53;2.88;;;4.70;99.90;;;;;;5016265;28;20750;-73
2024/01/29 06:04:10;;;;;;;7.47;3.05;;;4.70;99.90;;;;;;5011463;28;20061;-73
2024/01/29 06:06:37;;;;;;;6.93;2.95;;;4.70;99.90;;;;;;5000603;28;20029;-73
2024/01/29 06:09:05;;;;;;;10.27;3.03;;;4.60;99.90;;;;;;4991906;28;20501;-73
2024/01/29 06:11:31;;;;;;;5.75;2.38;;;4.60;99.90;;;;;;4992624;28;20038;-73
2024/01/29 06:13:56;;;;;;;6.32;2.42;;;4.60;99.90;;;;;;5009018;28;20041;-72
2024/01/29 06:16:22;;;;;;;6.45;2.60;;;4.50;99.90;;;;;;4997730;28;20026;-72
2024/01/29 06:18:48;;;;;;;8.15;2.80;;;4.50;99.90;;;;;;4995251;28;20041;-73
2024/01/29 06:21:14;;;;;;;4.32;2.30;;;4.50;99.90;;;;;;5013490;28;20026;-73
2024/01/29 06:23:40;;;;;;;9.27;2.70;;;4.50;99.90;;;;;;5003007;28;20050;-74
2024/01/29 06:26:06;;;;;;;5.53;2.97;;;4.40;99.90;;;;;;5022600;28;20246;-74
2024/01/29 06:28:31;;;;;;;4.47;2.42;;;4.40;99.90;;;;;;4994968;28;20026;-73
2024/01/29 06:30:57;;;;;;;7.88;3.05;;;4.40;99.90;;;;;;4998113;28;20030;-74
2024/01/29 06:33:22;;;;;;;5.78;2.70;;;4.40;99.90;;;;;;5003646;28;20033;-75
2024/01/29 06:35:48;;;;;;;8.13;3.70;;;4.40;99.90;;;;;;4997574;28;20030;-73
2024/01/29 06:38:13;;;;;;;8.68;3.22;;;4.40;99.90;;;;;;5018812;28;20025;-73
2024/01/29 06:40:39;;;;;;;8.88;2.95;;;4.30;99.90;;;;;;5030385;28;20030;-73
2024/01/29 06:43:05;;;;;;;5.07;2.40;;;4.30;99.90;;;;;;5017307;28;20180;-75
2024/01/29 06:45:33;;;;;;;7.47;3.55;;;4.30;99.90;;;;;;5010938;28;20429;-74
2024/01/29 06:47:59;;;;;;;6.10;2.70;;;4.30;99.90;;;;;;5013807;28;20038;-76
2024/01/29 06:50:24;;;;;;;10.18;2.80;;;4.30;99.90;;;;;;5017740;28;20036;-75
2024/01/29 06:52:50;;;;;;;9.23;3.08;;;4.30;99.90;;;;;;5006415;28;20037;-74
2024/01/29 06:55:20;;;;;;;6.45;2.88;;;4.40;99.90;;;;;;5025363;28;20063;-73
2024/01/29 06:57:48;;;;;;;5.30;2.53;;;4.40;99.90;;;;;;5012081;28;20046;-74
2024/01/29 07:00:14;;;;;;;6.88;2.88;;;4.40;99.90;;;;;;5015513;28;20049;-74
2024/01/29 07:02:40;;;;;;;5.93;2.97;;;4.40;99.90;;;;;;5019553;28;20057;-74
2024/01/29 07:05:05;;;;;;;11.90;3.50;;;4.40;99.90;;;;;;5022202;28;20057;-74
2024/01/29 07:07:31;;;;;;;8.45;3.15;;;4.40;99.90;;;;;;5009324;28;20065;-73
2024/01/29 07:09:57;;;;;;;8.00;3.03;;;4.40;99.90;;;;;;4992025;28;20033;-73
2024/01/29 07:12:22;;;;;;;9.30;2.80;;;4.40;99.90;;;;;;4999549;28;20107;-74
2024/01/29 07:14:49;;;;;;;7.20;3.30;;;4.40;99.90;;;;;;5009436;28;20493;-74
2024/01/29 07:17:15;;;;;;;7.25;3.10;;;4.30;99.90;;;;;;5009362;28;20029;-74
2024/01/29 07:19:40;;;;;;;8.98;3.40;;;4.30;99.90;;;;;;4991486;28;20045;-73
2024/01/29 07:22:08;;;;;;;5.55;2.42;;;4.30;99.90;;;;;;4992353;28;20030;-73
2024/01/29 07:24:34;;;;;;;8.80;3.08;;;4.30;99.90;;;;;;5015446;28;20038;-73
2024/01/29 07:27:00;;;;;;;6.68;3.13;;;4.30;99.90;;;;;;5007060;28;20038;-73
2024/01/29 07:29:31;;;;;;;10.82;3.00;;;4.30;99.90;;;;;;5029064;28;20022;-72
2024/01/29 07:31:58;;;;;;;5.78;3.00;;;4.30;99.90;;;;;;5002320;28;20088;-74
2024/01/29 07:34:23;;;;;;;8.23;3.47;;;4.30;99.90;;;;;;4995593;28;20034;-73
2024/01/29 07:36:49;;;;;;;6.88;3.15;;;4.30;99.90;;;;;;4991417;28;20100;-73
2024/01/29 07:39:15;;;;;;;6.97;3.05;;;4.30;99.90;;;;;;5016108;28;20091;-73
2024/01/29 07:41:41;;;;;;;8.23;3.03;;;4.40;99.90;;;;;;5028339;28;20021;-73
2024/01/29 07:44:07;;;;;;;5.60;2.72;;;4.40;99.90;;;;;;5009706;28;20176;-73
2024/01/29 07:46:32;;;;;;;7.57;3.00;;;4.40;99.90;;;;;;5000832;28;20042;-72
2024/01/29 07:49:01;;;;;;;6.95;3.33;;;4.40;99.90;;;;;;5002470;28;20086;-73
2024/01/29 07:51:27;;;;;;;5.60;3.58;;;4.50;99.90;;;;;;4996508;28;20032;-72
2024/01/29 07:53:53;;;;;;;7.82;3.40;;;4.50;99.90;;;;;;4998375;28;20034;-72
2024/01/29 07:56:18;;;;;;;11.73;4.32;;;4.50;99.90;;;;;;5016286;28;20032;-73
2024/01/29 07:58:44;;;;;;;8.05;3.50;;;4.50;99.90;;;;;;5010239;28;20040;-73
2024/01/29 08:01:10;;;;;;;8.23;3.10;;;4.50;99.90;;;;;;5010320;28;20030;-72
2024/01/29 08:03:35;;;;;;;6.93;2.97;;;4.60;99.90;;;;;;5019164;28;20458;-72
2024/01/29 08:06:02;;;;;;;6.80;3.00;;;4.50;99.90;;;;;;5003877;28;20025;-72
2024/01/29 08:08:29;;;;;;;8.52;2.65;;;4.60;99.90;;;;;;5021751;28;20405;-73
2024/01/29 08:10:58;;;;;;;9.30;3.88;;;4.70;99.90;;;;;;4990814;28;20029;-72
2024/01/29 08:13:23;;;;;;;7.75;3.15;;;4.70;99.90;;;;;;5007348;28;20060;-73
2024/01/29 08:15:50;;;;;;;8.73;3.22;;;4.70;99.90;;;;;;4990836;28;20458;-75
2024/01/29 08:18:16;;;;;;;8.40;3.28;;;4.80;99.90;;;;;;5002086;28;20109;-73
2024/01/29 08:20:41;;;;;;;8.45;3.25;;;4.80;99.90;;;;;;5028858;28;20121;-73
2024/01/29 08:23:07;;;;;;;10.35;2.90;;;4.90;99.90;;;;;;5005832;28;20402;-74
2024/01/29 08:25:32;;;;;;;6.93;3.45;;;4.90;99.90;;;;;;4998051;28;20086;-73
2024/01/29 08:27:58;;;;;;;9.60;3.45;;;5.00;99.90;;;;;;5007475;28;20624;-73
2024/01/29 08:30:23;;;;;;;7.05;3.40;;;5.00;99.90;;;;;;5007353;28;20038;-74
2024/01/29 08:32:49;;;;;;;6.30;2.60;;;5.10;99.90;;;;;;5007027;28;20049;-74
2024/01/29 08:35:14;;;;;;;7.88;3.67;;;5.10;99.90;;;;;;5008364;28;20105;-73
2024/01/29 08:37:41;;;;;;;7.80;3.00;;;5.10;99.90;;;;;;4990483;28;20049;-73
2024/01/29 08:40:07;;;;;;;5.57;2.95;;;5.20;99.90;;;;;;4999168;28;20041;-73
2024/01/29 08:42:32;;;;;;;5.38;2.72;;;5.20;99.90;;;;;;5008150;28;20038;-71
2024/01/29 08:45:00;;;;;;;6.18;3.15;;;5.10;99.90;;;;;;4992039;28;20076;-72
2024/01/29 08:47:25;;;;;;;7.90;2.83;;;5.20;99.90;;;;;;4990463;28;20037;-72
2024/01/29 08:49:51;;;;;;;6.25;2.97;;;5.10;99.90;;;;;;4990570;28;20057;-72
2024/01/29 08:52:17;;;;;;;9.00;3.03;;;5.20;99.90;;;;;;4991053;28;20061;-73
2024/01/29 08:54:44;;;;;;;9.65;3.10;;;5.20;99.90;;;;;;5001477;28;20477;-72
2024/01/29 08:57:10;;;;;;;5.78;2.55;;;5.20;99.90;;;;;;5008150;28;20396;-73
2024/01/29 08:59:35;;;;;;;7.07;2.90;;;5.30;99.90;;;;;;5011723;28;20034;-73
2024/01/29 09:02:01;;;;;;;9.40;2.75;;;5.30;99.90;;;;;;4999705;28;20061;-73
2024/01/29 09:04:27;;;;;;;7.60;3.22;;;5.30;99.90;;;;;;5002884;28;20061;-72
2024/01/29 09:06:52;;;;;;;9.82;3.03;;;5.30;99.90;;;;;;5014496;28;20114;-72
2024/01/29 09:09:18;;;;;;;6.10;3.05;;;5.40;99.90;;;;;;5013641;28;20057;-72
2024/01/29 09:11:44;;;;;;;6.40;2.95;;;5.40;99.90;;;;;;5032109;28;20037;-72
2024/01/29 09:14:09;;;;;;;8.73;3.28;;;5.40;99.90;;;;;;5003655;28;20041;-74
2024/01/29 09:16:35;;;;;;;7.75;3.33;;;5.40;99.90;;;;;;5016666;28;20034;-72
2024/01/29 09:19:00;;;;;;;6.43;2.72;;;5.40;99.90;;;;;;5006725;28;20466;-72
2024/01/29 09:21:30;;;;;;;6.85;3.65;;;5.40;99.90;;;;;;5009803;28;20493;-72
2024/01/29 09:23:56;;;;;;;7.00;2.75;;;5.40;99.90;;;;;;4993969;28;20053;-73
2024/01/29 09:26:22;;;;;;;9.90;3.75;;;5.50;99.90;;;;;;5019556;28;20038;-72
2024/01/29 09:28:47;;;;;;;5.53;2.88;;;5.50;99.90;;;;;;5004149;28;20033;-72
2024/01/29 09:31:13;;;;;;;10.25;3.70;;;5.60;99.90;;;;;;5031388;28;20053;-72
2024/01/29 09:33:38;;;;;;;7.75;3.10;;;5.60;99.90;;;;;;5013718;28;20040;-74
2024/01/29 09:36:04;;;;;;;7.82;3.35;;;5.60;99.90;;;;;;5018308;28;20538;-71
2024/01/29 09:38:30;;;;;;;10.25;3.10;;;5.70;99.90;;;;;;4993118;28;20438;-73
2024/01/29 09:40:57;;;;;;;7.32;3.17;;;5.70;99.90;;;;;;4997088;28;20034;-71
2024/01/29 09:43:26;;;;;;;6.53;3.28;;;5.80;99.90;;;;;;5013143;28;20044;-74
2024/01/29 09:45:53;;;;;;;7.68;3.67;;;5.90;99.90;;;;;;5030505;28;20030;-73
2024/01/29 09:48:18;;;;;;;5.72;3.45;;;5.90;99.90;;;;;;5030750;28;20545;-73
2024/01/29 09:50:47;;;;;;;6.68;3.35;;;6.00;99.90;;;;;;5004821;28;20159;-72
2024/01/29 09:53:16;;;;;;;13.35;3.88;;;6.10;99.90;;;;;;5011092;28;20026;-73
2024/01/29 09:55:42;;;;;;;6.65;2.78;;;6.20;99.90;;;;;;5020895;28;20044;-75
2024/01/29 09:58:08;;;;;;;7.55;3.05;;;6.30;99.90;;;;;;5013036;28;20021;-73
2024/01/29 10:00:34;;;;;;;6.72;3.30;;;6.40;99.90;;;;;;5002640;28;20029;-72
2024/01/29 10:03:04;;;;;;;9.25;3.63;;;6.50;99.90;;;;;;5026940;28;20106;-73
2024/01/29 10:05:33;;;;;;;9.95;3.65;;;6.60;99.90;;;;;;5001875;28;20105;-72
2024/01/29 10:07:59;;;;;;;7.32;3.30;;;6.70;99.90;;;;;;5001441;28;20030;-72
2024/01/29 10:10:25;;;;;;;6.15;2.92;;;6.80;99.90;;;;;;5026462;28;20608;-73
2024/01/29 10:13:01;;;;;;;7.30;3.25;;;6.90;99.90;;;;;;5030244;28;20405;-72
2024/01/29 10:15:27;;;;;;;8.82;3.28;;;7.00;99.90;;;;;;5022600;28;20088;-74
2024/01/29 10:17:53;;;;;;;8.68;3.85;;;7.20;99.90;;;;;;4992178;28;20042;-72
2024/01/29 10:20:19;;;;;;;7.60;3.20;;;7.20;99.90;;;;;;5001270;28;20045;-72
2024/01/29 10:22:45;;;;;;;6.97;3.63;;;7.30;99.90;;;;;;5004449;28;20095;-75
2024/01/29 10:25:13;;;;;;;7.82;3.60;;;7.40;99.90;;;;;;4998178;28;20037;-72
2024/01/29 10:27:39;;;;;;;8.68;3.35;;;7.50;99.90;;;;;;5012392;28;20560;-73
2024/01/29 10:30:06;;;;;;;9.60;3.58;;;7.50;99.90;;;;;;5030047;28;20137;-72
2024/01/29 10:32:31;;;;;;;11.70;3.47;;;7.50;99.90;;;;;;4992776;28;20108;-73
2024/01/29 10:34:57;;;;;;;7.95;3.20;;;7.60;99.90;;;;;;5003955;28;20485;-73
2024/01/29 10:37:26;;;;;;;7.40;4.00;;;7.70;99.90;;;;;;5001711;28;20434;-72
2024/01/29 10:39:54;;;;;;;5.97;3.15;;;7.70;99.90;;;;;;5011134;28;20440;-73
2024/01/29 10:42:26;;;;;;;12.77;3.47;;;7.70;99.90;;;;;;5023211;28;20109;-73
2024/01/29 10:44:53;;;;;;;9.90;3.35;;;7.80;99.90;;;;;;5009836;28;20034;-73
2024/01/29 10:47:30;;;;;;;11.23;3.92;;;7.90;99.90;;;;;;4992205;28;20466;-72
2024/01/29 10:49:59;;;;;;;9.15;4.18;;;8.00;99.90;;;;;;4993364;28;20085;-74
2024/01/29 10:52:26;;;;;;;11.07;4.25;;;8.10;99.90;;;;;;5020736;28;20493;-72
2024/01/29 10:54:52;;;;;;;13.52;3.95;;;8.10;99.90;;;;;;5018219;28;20036;-72
2024/01/29 10:57:20;;;;;;;9.30;4.25;;;8.20;99.90;;;;;;5012489;28;20041;-74
2024/01/29 10:59:47;;;;;;;10.48;3.90;;;8.30;99.90;;;;;;5013348;28;20033;-72
2024/01/29 11:02:14;;;;;;;10.07;3.83;;;8.30;99.90;;;;;;5003488;28;20026;-73
2024/01/29 11:04:40;;;;;;;9.95;4.50;;;8.50;99.90;;;;;;5010175;28;20065;-73
2024/01/29 11:07:12;;;;;;;10.50;4.47;;;8.50;99.90;;;;;;4995801;28;20477;-73
2024/01/29 11:09:43;;;;;;;10.70;4.25;;;8.50;99.90;;;;;;5011292;28;20394;-73
2024/01/29 11:12:11;;;;;;;10.15;4.13;;;8.60;99.90;;;;;;5006265;28;20029;-73
2024/01/29 11:14:36;;;;;;;9.50;4.65;;;8.70;99.90;;;;;;4996610;28;20037;-72
2024/01/29 11:17:02;;;;;;;18.48;4.35;;;8.80;99.90;;;;;;5009426;28;20034;-73
2024/01/29 11:19:33;;;;;;;11.38;4.32;;;8.90;99.90;;;;;;5009644;28;20036;-73
2024/01/29 11:22:00;;;;;;;8.85;4.00;;;8.90;99.90;;;;;;4999436;28;20037;-72
2024/01/29 11:24:26;;;;;;;12.15;4.32;;;9.00;99.90;;;;;;4991468;28;20057;-74
2024/01/29 11:26:53;;;;;;;11.82;5.03;;;9.10;99.90;;;;;;4992180;28;20049;-73
2024/01/29 11:29:19;;;;;;;13.93;5.15;;;9.20;99.90;;;;;;5017742;28;20445;-72
2024/01/29 11:31:45;;;;;;;7.63;4.00;;;9.20;99.90;;;;;;5010540;28;20033;-73
2024/01/29 11:34:14;;;;;;;8.18;3.92;;;9.20;99.90;;;;;;4997712;28;20077;-72
2024/01/29 11:36:39;;;;;;;16.67;5.30;;;9.30;99.90;;;;;;4996780;28;20034;-72
2024/01/29 11:39:06;;;;;;;11.32;4.45;;;9.40;99.90;;;;;;4994880;28;20481;-72
2024/01/29 11:41:34;;;;;;;7.82;3.80;;;9.40;99.90;;;;;;5009920;28;20040;-75
2024/01/29 11:44:02;;;;;;;9.65;5.03;;;9.60;99.90;;;;;;5007157;28;20510;-72
2024/01/29 11:46:29;;;;;;;9.90;4.32;;;9.60;99.90;;;;;;4990920;28;20026;-72
2024/01/29 11:48:58;;;;;;;9.68;4.43;;;9.60;99.90;;;;;;5012232;28;20041;-72
2024/01/29 11:51:27;;;;;;;8.27;4.50;;;9.50;99.90;;;;;;5005165;28;20092;-71
2024/01/29 11:53:53;;;;;;;12.80;4.45;;;9.50;99.90;;;;;;4992121;28;20489;-72
2024/01/29 11:56:18;;;;;;;12.15;4.45;;;9.50;99.90;;;;;;5009003;28;20033;-71
2024/01/29 11:58:44;;;;;;;10.68;4.15;;;9.60;99.90;;;;;;4998620;28;20025;-72
2024/01/29 12:01:10;;;;;;;10.07;4.35;;;9.50;99.90;;;;;;4995890;28;20025;-76
2024/01/29 12:03:37;;;;;;;8.43;4.53;;;9.50;99.90;;;;;;5002446;28;20117;-74
2024/01/29 12:06:04;;;;;;;10.32;5.03;;;9.50;99.90;;;;;;5003016;28;20095;-73
2024/01/29 12:08:30;;;;;;;15.30;4.38;;;9.50;99.90;;;;;;5020616;28;20445;-73
2024/01/29 12:11:03;;;;;;;8.80;4.22;;;9.60;99.90;;;;;;5008501;28;20030;-74
2024/01/29 12:13:29;;;;;;;10.77;4.47;;;9.50;99.90;;;;;;5008254;28;20041;-71
2024/01/29 12:15:58;;;;;;;12.70;3.83;;;9.50;99.90;;;;;;4990713;28;20112;-73
2024/01/29 12:18:25;;;;;;;8.80;4.60;;;9.50;99.90;;;;;;5008363;28;20088;-72
2024/01/29 12:20:51;;;;;;;8.73;4.60;;;9.60;99.90;;;;;;4990452;28;20038;-73
2024/01/29 12:23:18;;;;;;;8.13;4.75;;;9.50;99.90;;;;;;4998951;28;20547;-73
2024/01/29 12:25:45;;;;;;;10.65;4.38;;;9.50;99.90;;;;;;4990458;28;20042;-72
2024/01/29 12:28:12;;;;;;;8.52;3.80;;;9.60;99.90;;;;;;4998034;28;20137;-73
2024/01/29 12:30:39;;;;;;;9.23;4.40;;;9.70;99.90;;;;;;5010432;28;20392;-72
2024/01/29 12:33:07;;;;;;;9.20;4.45;;;9.70;99.90;;;;;;5003643;28;20034;-74
2024/01/29 12:35:34;;;;;;;10.23;3.97;;;9.70;99.90;;;;;;5024626;28;20025;-73
2024/01/29 12:38:07;;;;;;;12.10;4.65;;;9.70;99.90;;;;;;5028232;28;20079;-73
2024/01/29 12:40:33;;;;;;;11.18;4.25;;;9.90;99.90;;;;;;5002395;28;20029;-72
2024/01/29 12:43:06;;;;;;;7.75;3.97;;;9.90;99.90;;;;;;5021571;28;20065;-74
2024/01/29 12:45:33;;;;;;;9.45;4.32;;;9.90;99.90;;;;;;5013803;28;20038;-74
2024/01/29 12:48:12;;;;;;;10.23;4.55;;;10.10;99.90;;;;;;5030732;28;20504;-73
2024/01/29 12:50:41;;;;;;;8.32;4.15;;;10.10;99.90;;;;;;5004264;28;20030;-73
2024/01/29 12:53:10;;;;;;;9.23;3.70;;;10.10;99.90;;;;;;4996114;28;20038;-72